Time;durP1;ratioP1;P1;durP2;ratioP2;P2;SDS_P1;SDS_P2;PMS_P1;PMS_P2;Temp;Humidity;BMP_temperature;BMP_pressure;BME280_temperature;BME280_humidity;BME280_pressure;Samples;Min_cycle;Max_cycle;Signal;HPM_P1;HPM_P2
2023/11/13 00:00:07;;;;;;;27.65;13.80;;;;;;;4.31;nan;95387.28;2042177;29;20054;-57
2023/11/13 00:01:11;;;;;;;22.55;11.60;;;;;;;4.38;nan;95391.31;2042438;29;20047;-56
2023/11/13 00:02:15;;;;;;;19.55;12.23;;;;;;;4.43;nan;95389.41;2042218;29;20074;-57
2023/11/13 00:03:16;;;;;;;21.90;12.68;;;;;;;4.47;nan;95385.88;2042245;29;20052;-56
2023/11/13 00:04:17;;;;;;;18.52;10.35;;;;;;;4.51;nan;95369.44;2042162;29;20054;-56
2023/11/13 00:05:18;;;;;;;19.45;11.35;;;;;;;4.59;nan;95384.63;2042534;29;20385;-56
2023/11/13 00:06:19;;;;;;;17.85;11.63;;;;;;;4.60;nan;95373.47;2042161;29;20055;-57
2023/11/13 00:07:21;;;;;;;15.52;10.23;;;;;;;4.64;nan;95381.00;2042125;29;20051;-56
2023/11/13 00:08:23;;;;;;;20.40;11.63;;;;;;;4.66;nan;95382.69;2042217;29;20054;-56
2023/11/13 00:09:24;;;;;;;17.65;10.52;;;;;;;4.63;nan;95381.06;2041967;29;20052;-55
2023/11/13 00:10:25;;;;;;;16.85;10.00;;;;;;;4.65;nan;95379.25;2033682;29;20056;-55
2023/11/13 00:11:26;;;;;;;18.63;9.95;;;;;;;4.71;nan;95383.38;2025725;29;20481;-55
2023/11/13 00:12:27;;;;;;;16.55;9.93;;;;;;;4.74;nan;95391.81;2033608;29;20059;-55
2023/11/13 00:13:28;;;;;;;18.27;10.50;;;;;;;4.74;nan;95394.41;2041559;29;20062;-56
2023/11/13 00:14:29;;;;;;;19.38;10.20;;;;;;;4.75;nan;95384.94;2041979;29;20507;-55
2023/11/13 00:15:30;;;;;;;20.90;10.95;;;;;;;4.77;nan;95390.88;2042327;29;20051;-56
2023/11/13 00:16:31;;;;;;;17.35;10.07;;;;;;;4.76;nan;95395.19;2042225;29;20043;-55
2023/11/13 00:17:32;;;;;;;20.52;10.45;;;;;;;4.77;nan;95389.13;2042258;29;20382;-56
2023/11/13 00:18:34;;;;;;;18.60;10.90;;;;;;;4.75;nan;95388.34;2041516;29;20047;-56
2023/11/13 00:19:37;;;;;;;18.83;9.93;;;;;;;4.76;nan;95384.91;2041375;29;20058;-55
2023/11/13 00:20:38;;;;;;;17.45;9.68;;;;;;;4.78;nan;95384.84;2041621;29;20051;-56
2023/11/13 00:21:39;;;;;;;18.75;11.52;;;;;;;4.78;nan;95384.84;2042088;29;20046;-56
2023/11/13 00:22:41;;;;;;;17.98;10.50;;;;;;;4.75;nan;95385.78;2041991;29;20062;-55
2023/11/13 00:23:45;;;;;;;17.10;9.95;;;;;;;4.76;nan;95384.06;2042428;29;20051;-55
2023/11/13 00:24:46;;;;;;;19.42;10.75;;;;;;;4.74;nan;95385.84;2041298;29;20086;-55
2023/11/13 00:25:47;;;;;;;15.25;10.13;;;;;;;4.78;nan;95397.69;2041499;29;20523;-55
2023/11/13 00:26:48;;;;;;;19.25;11.68;;;;;;;4.77;nan;95393.44;2041705;29;20051;-56
2023/11/13 00:27:49;;;;;;;19.92;11.10;;;;;;;4.77;nan;95391.72;2033592;29;20051;-55
2023/11/13 00:28:51;;;;;;;18.92;10.90;;;;;;;4.78;nan;95389.97;2026057;29;20052;-55
2023/11/13 00:29:52;;;;;;;19.63;11.05;;;;;;;4.80;nan;95390.78;2025876;29;20465;-55
2023/11/13 00:30:53;;;;;;;20.25;11.00;;;;;;;4.82;nan;95394.97;2033931;29;20055;-55
2023/11/13 00:31:54;;;;;;;21.13;11.75;;;;;;;4.82;nan;95396.72;2033752;29;20048;-55
2023/11/13 00:32:55;;;;;;;18.75;11.68;;;;;;;4.82;nan;95392.41;2033612;29;20032;-55
2023/11/13 00:33:56;;;;;;;17.92;11.07;;;;;;;4.83;nan;95393.22;2033855;29;20055;-55
2023/11/13 00:34:57;;;;;;;21.23;11.88;;;;;;;4.84;nan;95400.91;2026056;29;20413;-55
2023/11/13 00:35:59;;;;;;;20.40;11.48;;;;;;;4.83;nan;95393.22;2025135;29;20053;-55
2023/11/13 00:37:00;;;;;;;21.48;11.05;;;;;;;4.81;nan;95395.00;2033372;29;20059;-56
2023/11/13 00:38:01;;;;;;;22.73;12.63;;;;;;;4.77;nan;95385.72;2042058;29;20059;-56
2023/11/13 00:39:03;;;;;;;18.67;10.77;;;;;;;4.82;nan;95389.81;2041902;29;20050;-55
2023/11/13 00:40:04;;;;;;;19.27;12.05;;;;;;;4.83;nan;95391.50;2042112;29;20059;-55
2023/11/13 00:41:10;;;;;;;20.52;11.65;;;;;;;4.86;nan;95387.97;2041938;29;20047;-55
2023/11/13 00:42:11;;;;;;;20.38;11.38;;;;;;;4.84;nan;95382.06;2033049;29;20126;-55
2023/11/13 00:43:12;;;;;;;21.05;12.05;;;;;;;4.81;nan;95377.00;2033592;29;20055;-56
2023/11/13 00:44:13;;;;;;;22.67;11.75;;;;;;;4.82;nan;95386.41;2033742;29;20059;-55
2023/11/13 00:45:14;;;;;;;19.13;11.55;;;;;;;4.79;nan;95377.06;2025846;29;20052;-56
2023/11/13 00:46:16;;;;;;;20.90;12.00;;;;;;;4.80;nan;95381.31;2025631;29;20045;-56
2023/11/13 00:47:17;;;;;;;20.67;12.23;;;;;;;4.76;nan;95382.31;2033500;29;20055;-55
2023/11/13 00:48:18;;;;;;;19.70;11.60;;;;;;;4.75;nan;95384.94;2041512;29;20060;-55
2023/11/13 00:49:19;;;;;;;20.15;11.88;;;;;;;4.71;nan;95379.06;2041228;29;20088;-55
2023/11/13 00:50:21;;;;;;;21.88;12.15;;;;;;;4.69;nan;95391.13;2042138;29;20062;-55
2023/11/13 00:51:22;;;;;;;23.25;12.45;;;;;;;4.62;nan;95390.50;2041244;29;20059;-55
2023/11/13 00:52:24;;;;;;;21.63;12.43;;;;;;;4.58;nan;95386.34;2041854;29;20061;-56
2023/11/13 00:53:25;;;;;;;23.73;13.20;;;;;;;4.56;nan;95385.56;2033206;29;20052;-55
2023/11/13 00:54:26;;;;;;;24.98;13.77;;;;;;;4.51;nan;95384.88;2033513;29;20499;-55
2023/11/13 00:55:27;;;;;;;22.45;13.07;;;;;;;4.49;nan;95378.09;2040914;29;20060;-56
2023/11/13 00:56:28;;;;;;;26.58;14.35;;;;;;;4.50;nan;95378.06;2041801;29;20110;-56
2023/11/13 00:57:29;;;;;;;33.38;15.57;;;;;;;4.52;nan;95378.84;2041817;29;20062;-56
2023/11/13 00:58:35;;;;;;;29.25;14.40;;;;;;;4.52;nan;95376.28;2040392;29;20052;-56
2023/11/13 00:59:36;;;;;;;32.70;15.77;;;;;;;4.50;nan;95370.34;2033444;29;20052;-56
2023/11/13 01:00:37;;;;;;;36.67;17.10;;;;;;;4.46;nan;95375.63;2033779;29;20428;-56
2023/11/13 01:01:39;;;;;;;24.02;13.98;;;;;;;4.35;nan;95370.84;2032784;29;20056;-56
2023/11/13 01:02:40;;;;;;;39.53;16.67;;;;;;;4.37;nan;95374.22;2025695;29;20052;-56
2023/11/13 01:03:44;;;;;;;36.28;16.83;;;;;;;4.38;nan;95371.59;2033522;29;20055;-56
2023/11/13 01:04:45;;;;;;;32.90;16.30;;;;;;;4.37;nan;95382.75;2041886;29;20043;-56
2023/11/13 01:05:47;;;;;;;32.25;16.92;;;;;;;4.31;nan;95374.41;2033068;29;20459;-56
2023/11/13 01:06:48;;;;;;;35.40;17.23;;;;;;;4.24;nan;95367.78;2033362;29;20043;-56
2023/11/13 01:07:49;;;;;;;35.95;16.98;;;;;;;4.26;nan;95372.00;2033407;29;20051;-56
2023/11/13 01:08:50;;;;;;;31.75;15.80;;;;;;;4.22;nan;95370.38;2033212;29;20055;-55
2023/11/13 01:09:51;;;;;;;32.42;17.80;;;;;;;4.26;nan;95376.28;2036118;29;20069;-56
2023/11/13 01:10:53;;;;;;;29.20;16.45;;;;;;;4.28;nan;95379.66;2033685;29;20051;-56
2023/11/13 01:11:54;;;;;;;31.20;17.08;;;;;;;4.30;nan;95380.44;2041856;29;20059;-56
2023/11/13 01:12:55;;;;;;;30.42;16.27;;;;;;;4.30;nan;95380.44;2041716;29;20047;-56
2023/11/13 01:13:56;;;;;;;29.60;16.60;;;;;;;4.33;nan;95380.31;2041370;29;20508;-57
2023/11/13 01:14:57;;;;;;;29.38;16.20;;;;;;;4.35;nan;95383.69;2041556;29;20055;-56
2023/11/13 01:15:58;;;;;;;31.27;16.77;;;;;;;4.37;nan;95382.75;2041019;29;20051;-57
2023/11/13 01:17:00;;;;;;;31.27;17.50;;;;;;;4.32;nan;95383.78;2041664;29;20055;-57
2023/11/13 01:18:01;;;;;;;33.28;17.20;;;;;;;4.29;nan;95376.19;2041800;29;20491;-57
2023/11/13 01:19:02;;;;;;;30.02;16.95;;;;;;;4.33;nan;95386.34;2041996;29;20464;-57
2023/11/13 01:20:05;;;;;;;30.40;16.70;;;;;;;4.36;nan;95382.81;2032625;29;20516;-57
2023/11/13 01:21:07;;;;;;;26.20;16.00;;;;;;;4.39;nan;95393.00;2033145;29;20071;-57
2023/11/13 01:22:08;;;;;;;27.77;16.67;;;;;;;4.36;nan;95387.97;2041692;29;20063;-57
2023/11/13 01:23:09;;;;;;;25.27;15.52;;;;;;;4.37;nan;95395.59;2041997;29;20054;-57
2023/11/13 01:24:10;;;;;;;28.25;16.88;;;;;;;4.37;nan;95395.59;2041339;29;20055;-57
2023/11/13 01:25:12;;;;;;;31.33;18.35;;;;;;;4.29;nan;95394.19;2041974;29;20055;-57
2023/11/13 01:26:14;;;;;;;29.70;17.33;;;;;;;4.30;nan;95393.28;2033315;29;20060;-57
2023/11/13 01:27:15;;;;;;;32.53;18.10;;;;;;;4.29;nan;95392.44;2033017;29;20056;-57
2023/11/13 01:28:16;;;;;;;31.38;18.20;;;;;;;4.30;nan;95393.28;2033679;29;20044;-57
2023/11/13 01:29:17;;;;;;;33.80;18.42;;;;;;;4.31;nan;95394.97;2041773;29;20050;-57
2023/11/13 01:30:19;;;;;;;34.65;18.65;;;;;;;4.32;nan;95391.50;2033573;29;20409;-57
2023/11/13 01:31:20;;;;;;;31.85;17.90;;;;;;;4.30;nan;95383.00;2033454;29;20052;-57
2023/11/13 01:32:21;;;;;;;28.92;16.50;;;;;;;4.28;nan;95374.53;2041867;29;20056;-56
2023/11/13 01:33:22;;;;;;;36.75;19.23;;;;;;;4.26;nan;95364.28;2033440;29;20063;-57
2023/11/13 01:34:24;;;;;;;33.45;18.83;;;;;;;4.26;nan;95366.00;2033297;29;20055;-56
2023/11/13 01:35:25;;;;;;;31.52;16.90;;;;;;;4.16;nan;95368.03;2041789;29;20052;-56
2023/11/13 01:36:26;;;;;;;34.72;16.83;;;;;;;4.08;nan;95365.69;2041673;29;20067;-57
2023/11/13 01:37:28;;;;;;;46.53;22.27;;;;;;;4.04;nan;95369.28;2041674;29;20050;-57
2023/11/13 01:38:29;;;;;;;46.90;21.77;;;;;;;4.05;nan;95370.94;2032841;29;20052;-57
2023/11/13 01:39:30;;;;;;;36.78;17.67;;;;;;;4.03;nan;95369.31;2032283;29;20064;-56
2023/11/13 01:40:32;;;;;;;40.05;21.27;;;;;;;4.06;nan;95372.59;2041807;29;20040;-57
2023/11/13 01:41:34;;;;;;;39.72;20.40;;;;;;;4.06;nan;95375.19;2041040;29;20048;-56
2023/11/13 01:42:35;;;;;;;38.22;20.08;;;;;;;4.08;nan;95363.13;2041806;29;20051;-56
2023/11/13 01:43:36;;;;;;;45.53;23.20;;;;;;;4.08;nan;95365.69;2041581;29;20366;-57
2023/11/13 01:44:37;;;;;;;40.78;22.10;;;;;;;4.10;nan;95375.94;2032896;29;20056;-56
2023/11/13 01:45:39;;;;;;;44.60;23.17;;;;;;;4.09;nan;95375.09;2033465;29;20112;-56
2023/11/13 01:46:40;;;;;;;47.55;24.08;;;;;;;4.09;nan;95367.41;2041685;29;20495;-56
2023/11/13 01:47:41;;;;;;;42.78;23.95;;;;;;;4.09;nan;95364.81;2032841;29;20060;-56
2023/11/13 01:48:42;;;;;;;48.20;25.65;;;;;;;4.07;nan;95371.75;2017715;29;20041;-57
2023/11/13 01:49:43;;;;;;;47.90;25.60;;;;;;;4.03;nan;95359.88;2017930;29;20049;-57
2023/11/13 01:50:44;;;;;;;43.95;22.23;;;;;;;4.05;nan;95362.41;2025435;29;20041;-57
2023/11/13 01:51:47;;;;;;;68.35;27.25;;;;;;;4.09;nan;95364.81;2025409;29;20068;-57
2023/11/13 01:52:48;;;;;;;56.15;26.63;;;;;;;4.12;nan;95374.16;2018151;29;20053;-57
2023/11/13 01:53:49;;;;;;;55.55;24.90;;;;;;;4.12;nan;95371.59;2025501;29;20496;-57
2023/11/13 01:54:50;;;;;;;51.58;25.23;;;;;;;4.10;nan;95366.50;2025346;29;20406;-57
2023/11/13 01:55:52;;;;;;;51.28;24.33;;;;;;;4.14;nan;95368.09;2025565;29;20048;-57
2023/11/13 01:56:54;;;;;;;46.20;22.35;;;;;;;4.14;nan;95356.94;2017997;29;20049;-57
2023/11/13 01:57:55;;;;;;;38.55;18.33;;;;;;;4.10;nan;95353.66;2017653;29;20061;-57
2023/11/13 01:58:57;;;;;;;36.00;17.80;;;;;;;4.07;nan;95352.91;2016596;29;20544;-57
2023/11/13 01:59:58;;;;;;;47.58;25.80;;;;;;;4.08;nan;95363.13;2017701;29;20049;-57
2023/11/13 02:00:59;;;;;;;50.50;25.85;;;;;;;4.15;nan;95364.63;2003341;29;20148;-57
2023/11/13 02:02:00;;;;;;;54.97;27.05;;;;;;;4.17;nan;95369.69;2017662;29;20052;-57
2023/11/13 02:03:01;;;;;;;37.35;20.33;;;;;;;4.12;nan;95366.47;2025228;29;20076;-56
2023/11/13 02:04:03;;;;;;;44.83;22.55;;;;;;;4.12;nan;95369.88;2017842;29;20502;-57
2023/11/13 02:05:05;;;;;;;43.35;22.52;;;;;;;4.11;nan;95363.03;2026339;29;20052;-56
2023/11/13 02:06:08;;;;;;;42.58;22.40;;;;;;;4.15;nan;95367.19;2035033;29;20061;-56
2023/11/13 02:07:09;;;;;;;44.90;23.10;;;;;;;4.10;nan;95366.50;2034765;29;20528;-57
2023/11/13 02:08:10;;;;;;;47.75;23.98;;;;;;;4.12;nan;95366.47;2026708;29;20048;-56
2023/11/13 02:09:12;;;;;;;46.90;24.23;;;;;;;4.17;nan;95360.28;2018679;29;20060;-57
2023/11/13 02:10:13;;;;;;;46.35;23.55;;;;;;;4.22;nan;95364.41;2034672;29;20079;-57
2023/11/13 02:11:15;;;;;;;42.03;24.10;;;;;;;4.26;nan;95355.72;2042115;29;20055;-57
2023/11/13 02:12:16;;;;;;;47.75;24.60;;;;;;;4.28;nan;95343.69;2034574;29;20044;-57
2023/11/13 02:13:18;;;;;;;40.47;22.42;;;;;;;4.18;nan;95349.09;2026771;29;20080;-57
2023/11/13 02:14:19;;;;;;;48.42;24.90;;;;;;;4.22;nan;95359.28;2019222;29;20075;-57
2023/11/13 02:15:20;;;;;;;35.45;18.80;;;;;;;4.17;nan;95347.44;2027007;29;20508;-57
2023/11/13 02:16:21;;;;;;;35.08;18.13;;;;;;;4.20;nan;95337.03;2034757;29;20044;-57
2023/11/13 02:17:22;;;;;;;40.13;18.63;;;;;;;4.16;nan;95343.16;2042903;29;20048;-57
2023/11/13 02:18:23;;;;;;;47.05;24.92;;;;;;;4.17;nan;95344.88;2042703;29;20066;-57
2023/11/13 02:19:24;;;;;;;40.90;22.75;;;;;;;4.14;nan;95347.53;2042742;29;20055;-57
2023/11/13 02:20:26;;;;;;;43.17;22.80;;;;;;;4.17;nan;95342.28;2042635;29;20055;-57
2023/11/13 02:21:27;;;;;;;40.38;21.80;;;;;;;4.18;nan;95343.97;2042472;29;20050;-57
2023/11/13 02:22:28;;;;;;;44.45;22.33;;;;;;;4.22;nan;95346.44;2034639;29;20052;-57
2023/11/13 02:23:29;;;;;;;42.42;21.42;;;;;;;4.21;nan;95337.88;2034770;29;20056;-57
2023/11/13 02:24:30;;;;;;;40.83;21.77;;;;;;;4.29;nan;95340.19;2026929;29;20056;-57
2023/11/13 02:25:36;;;;;;;32.97;17.17;;;;;;;4.31;nan;95330.72;2034066;29;20055;-57
2023/11/13 02:26:37;;;;;;;33.95;17.67;;;;;;;4.42;nan;95338.91;2027236;29;20401;-57
2023/11/13 02:27:39;;;;;;;33.42;18.70;;;;;;;4.45;nan;95331.09;2034744;29;20051;-57
2023/11/13 02:28:40;;;;;;;33.85;16.33;;;;;;;4.47;nan;95326.75;2042949;29;20487;-57
2023/11/13 02:29:43;;;;;;;33.72;17.08;;;;;;;4.49;nan;95324.97;2034174;29;20056;-57
2023/11/13 02:30:44;;;;;;;37.40;16.92;;;;;;;4.50;nan;95324.06;2034793;29;20048;-57
2023/11/13 02:31:52;;;;;;;36.58;17.60;;;;;;;4.47;nan;95319.03;2034739;29;20059;-57
2023/11/13 02:32:53;;;;;;;38.75;19.65;;;;;;;4.53;nan;95315.41;2035414;29;20051;-58
2023/11/13 02:33:54;;;;;;;34.40;15.73;;;;;;;4.59;nan;95323.72;2042816;29;20063;-57
2023/11/13 02:34:55;;;;;;;37.13;20.25;;;;;;;4.61;nan;95319.38;2034608;29;20052;-58
2023/11/13 02:35:56;;;;;;;34.17;18.13;;;;;;;4.66;nan;95323.53;2034392;29;20417;-58
2023/11/13 02:36:57;;;;;;;35.40;18.92;;;;;;;4.69;nan;95329.41;2033982;29;20056;-58
2023/11/13 02:37:59;;;;;;;41.60;21.98;;;;;;;4.70;nan;95319.94;2042488;29;20055;-58
2023/11/13 02:39:00;;;;;;;37.28;20.27;;;;;;;4.73;nan;95322.41;2042712;29;20043;-58
2023/11/13 02:40:02;;;;;;;34.47;18.65;;;;;;;4.77;nan;95327.41;2034075;29;20071;-58
2023/11/13 02:41:03;;;;;;;31.58;18.13;;;;;;;4.79;nan;95330.78;2033989;29;20443;-58
2023/11/13 02:42:04;;;;;;;31.95;18.45;;;;;;;4.82;nan;95334.97;2042719;29;20055;-59
2023/11/13 02:43:06;;;;;;;33.05;18.95;;;;;;;4.84;nan;95328.03;2042765;29;20054;-59
2023/11/13 02:44:07;;;;;;;32.88;17.02;;;;;;;4.91;nan;95324.34;2034311;29;20056;-59
2023/11/13 02:45:08;;;;;;;37.78;18.63;;;;;;;4.94;nan;95326.78;2034328;29;20054;-59
2023/11/13 02:46:09;;;;;;;37.95;18.95;;;;;;;4.99;nan;95327.47;2043093;29;20368;-59
2023/11/13 02:47:10;;;;;;;38.78;19.48;;;;;;;4.97;nan;95324.13;2042971;29;20054;-59
2023/11/13 02:48:12;;;;;;;35.60;19.50;;;;;;;5.02;nan;95329.09;2042861;29;20055;-59
2023/11/13 02:49:13;;;;;;;32.33;17.52;;;;;;;5.10;nan;95327.09;2042957;29;20070;-60
2023/11/13 02:50:14;;;;;;;34.72;18.10;;;;;;;5.19;nan;95328.50;2034246;29;20063;-61
2023/11/13 02:51:17;;;;;;;32.50;17.00;;;;;;;5.18;nan;95322.50;2034263;29;20574;-60
2023/11/13 02:52:19;;;;;;;32.03;17.38;;;;;;;5.16;nan;95323.44;2034485;29;20048;-60
2023/11/13 02:53:20;;;;;;;30.98;15.50;;;;;;;5.23;nan;95319.75;2042874;29;20052;-60
2023/11/13 02:54:21;;;;;;;27.88;14.85;;;;;;;5.24;nan;95318.88;2042753;29;20051;-60
2023/11/13 02:55:22;;;;;;;37.97;17.63;;;;;;;5.24;nan;95316.31;2042816;29;20476;-59
2023/11/13 02:56:23;;;;;;;40.05;19.55;;;;;;;5.22;nan;95318.09;2034521;29;20048;-60
2023/11/13 02:57:24;;;;;;;35.92;19.48;;;;;;;5.25;nan;95323.13;2033926;29;20056;-60
2023/11/13 02:58:26;;;;;;;34.90;19.52;;;;;;;5.27;nan;95323.91;2041508;29;20047;-58
2023/11/13 02:59:27;;;;;;;37.30;19.38;;;;;;;5.29;nan;95325.53;2034174;29;20044;-59
2023/11/13 03:00:29;;;;;;;43.42;19.65;;;;;;;5.29;nan;95325.53;2034373;29;20068;-60
2023/11/13 03:01:30;;;;;;;37.53;17.58;;;;;;;5.30;nan;95318.66;2042885;29;20051;-59
2023/11/13 03:02:32;;;;;;;36.67;19.05;;;;;;;5.31;nan;95313.41;2042726;29;20051;-59
2023/11/13 03:03:34;;;;;;;46.97;21.40;;;;;;;5.34;nan;95320.19;2042899;29;20043;-59
2023/11/13 03:04:35;;;;;;;46.40;22.00;;;;;;;5.37;nan;95316.66;2034260;29;20122;-59
2023/11/13 03:05:36;;;;;;;49.08;22.25;;;;;;;5.37;nan;95317.50;2026356;29;20060;-59
2023/11/13 03:06:37;;;;;;;61.85;23.20;;;;;;;5.30;nan;95316.91;2034466;29;20052;-60
2023/11/13 03:07:38;;;;;;;83.90;26.58;;;;;;;5.27;nan;95306.72;2042595;29;20051;-60
2023/11/13 03:08:44;;;;;;;59.67;23.05;;;;;;;5.37;nan;95312.34;2042560;29;20054;-60
2023/11/13 03:09:46;;;;;;;75.35;24.73;;;;;;;5.24;nan;95301.69;2042953;29;20055;-59
2023/11/13 03:10:47;;;;;;;87.88;27.13;;;;;;;5.20;nan;95299.28;2034037;29;20056;-58
2023/11/13 03:11:49;;;;;;;107.70;30.98;;;;;;;5.12;nan;95301.31;2034184;29;20056;-59
2023/11/13 03:12:50;;;;;;;84.05;28.05;;;;;;;5.17;nan;95299.41;2033828;29;20055;-58
2023/11/13 03:13:51;;;;;;;99.55;30.30;;;;;;;5.17;nan;95292.50;2026503;29;20179;-58
2023/11/13 03:14:52;;;;;;;70.20;24.13;;;;;;;5.22;nan;95297.50;2034250;29;20055;-58
2023/11/13 03:15:53;;;;;;;60.85;25.27;;;;;;;5.23;nan;95288.88;2042788;29;20054;-58
2023/11/13 03:16:56;;;;;;;73.28;25.77;;;;;;;5.14;nan;95291.81;2041950;29;20047;-58
2023/11/13 03:17:57;;;;;;;105.68;30.40;;;;;;;5.11;nan;95281.63;2026360;29;20127;-57
2023/11/13 03:18:58;;;;;;;65.30;26.15;;;;;;;5.08;nan;95288.56;2026264;29;20057;-57
2023/11/13 03:19:59;;;;;;;56.95;24.35;;;;;;;5.08;nan;95285.16;2034221;29;20070;-58
2023/11/13 03:21:02;;;;;;;76.35;25.60;;;;;;;5.11;nan;95284.19;2026521;29;20071;-57
2023/11/13 03:22:04;;;;;;;70.80;24.77;;;;;;;5.16;nan;95289.97;2033963;29;20417;-57
2023/11/13 03:23:05;;;;;;;71.35;26.65;;;;;;;5.19;nan;95289.91;2041879;29;20047;-57
2023/11/13 03:24:06;;;;;;;70.28;25.25;;;;;;;5.16;nan;95282.25;2034121;29;20056;-57
2023/11/13 03:25:08;;;;;;;65.95;24.65;;;;;;;5.13;nan;95284.94;2034056;29;20528;-57
2023/11/13 03:26:09;;;;;;;57.10;24.10;;;;;;;5.17;nan;95289.09;2042860;29;20040;-57
2023/11/13 03:27:10;;;;;;;59.63;24.15;;;;;;;5.18;nan;95293.34;2041746;29;20455;-57
2023/11/13 03:28:11;;;;;;;46.83;21.98;;;;;;;5.21;nan;95291.50;2034125;29;20051;-57
2023/11/13 03:29:12;;;;;;;55.97;22.85;;;;;;;5.29;nan;95293.78;2033926;29;20044;-57
2023/11/13 03:30:13;;;;;;;48.22;20.75;;;;;;;5.29;nan;95286.91;2042463;29;20074;-57
2023/11/13 03:31:15;;;;;;;54.67;18.92;;;;;;;5.28;nan;95277.50;2042098;29;20067;-57
2023/11/13 03:32:18;;;;;;;91.68;28.52;;;;;;;5.37;nan;95280.63;2034149;29;20056;-57
2023/11/13 03:33:20;;;;;;;68.68;25.13;;;;;;;5.37;nan;95276.31;2034227;29;20047;-57
2023/11/13 03:34:21;;;;;;;65.85;24.38;;;;;;;5.36;nan;95279.78;2026508;29;20083;-57
2023/11/13 03:35:23;;;;;;;54.60;21.50;;;;;;;5.42;nan;95278.72;2042467;29;20048;-57
2023/11/13 03:36:24;;;;;;;51.42;21.77;;;;;;;5.47;nan;95280.19;2042488;29;20048;-57
2023/11/13 03:37:25;;;;;;;42.28;19.00;;;;;;;5.51;nan;95274.06;2042652;29;20408;-57
2023/11/13 03:38:26;;;;;;;54.85;21.58;;;;;;;5.56;nan;95283.31;2042456;29;20059;-57
2023/11/13 03:39:27;;;;;;;36.95;16.23;;;;;;;5.63;nan;95280.44;2033615;29;20048;-57
2023/11/13 03:40:28;;;;;;;44.55;20.90;;;;;;;5.61;nan;95279.66;2034072;29;20048;-57
2023/11/13 03:41:32;;;;;;;55.95;18.33;;;;;;;5.68;nan;95275.13;2033944;29;20052;-57
2023/11/13 03:42:33;;;;;;;41.42;19.20;;;;;;;5.64;nan;95274.41;2034438;29;20512;-57
2023/11/13 03:43:35;;;;;;;38.30;18.33;;;;;;;5.71;nan;95277.56;2041707;29;20059;-57
2023/11/13 03:44:37;;;;;;;35.75;17.15;;;;;;;5.74;nan;95282.59;2041780;29;20067;-57
2023/11/13 03:45:38;;;;;;;46.38;18.33;;;;;;;5.72;nan;95276.66;2042286;29;20059;-57
2023/11/13 03:46:39;;;;;;;32.40;13.57;;;;;;;5.75;nan;95268.84;2042331;29;20036;-58
2023/11/13 03:47:40;;;;;;;28.65;12.82;;;;;;;5.85;nan;95261.56;2042393;29;20059;-58
2023/11/13 03:48:41;;;;;;;53.22;19.33;;;;;;;5.81;nan;95263.44;2042502;29;20419;-58
2023/11/13 03:49:42;;;;;;;18.48;10.05;;;;;;;6.09;nan;95258.00;2042532;29;20039;-58
2023/11/13 03:50:43;;;;;;;12.73;7.05;;;;;;;6.20;nan;95257.56;2042346;29;20035;-58
2023/11/13 03:51:44;;;;;;;15.27;7.80;;;;;;;6.22;nan;95263.50;2042343;29;20039;-59
2023/11/13 03:52:45;;;;;;;11.98;5.50;;;;;;;6.30;nan;95268.34;2034084;29;20048;-59
2023/11/13 03:53:46;;;;;;;9.80;4.78;;;;;;;6.42;nan;95269.59;2033985;29;20092;-59
2023/11/13 03:54:47;;;;;;;6.45;3.92;;;;;;;6.55;nan;95258.66;2033416;29;20056;-59
2023/11/13 03:55:49;;;;;;;6.47;3.65;;;;;;;6.71;nan;95268.31;2034057;29;20048;-58
2023/11/13 03:56:50;;;;;;;7.55;4.18;;;;;;;6.72;nan;95267.41;2034004;29;20056;-57
2023/11/13 03:57:51;;;;;;;5.88;3.05;;;;;;;6.77;nan;95261.16;2034048;29;20504;-58
2023/11/13 03:58:52;;;;;;;5.85;3.28;;;;;;;6.78;nan;95260.22;2032714;29;20052;-57
2023/11/13 03:59:53;;;;;;;8.38;2.70;;;;;;;6.89;nan;95264.91;2042540;29;20057;-57
2023/11/13 04:00:54;;;;;;;7.30;2.30;;;;;;;6.95;nan;95266.38;2042533;29;20043;-57
2023/11/13 04:01:55;;;;;;;2.92;1.55;;;;;;;7.12;nan;95266.47;2042226;29;20055;-57
2023/11/13 04:02:56;;;;;;;5.90;1.58;;;;;;;7.17;nan;95272.28;2041886;29;20408;-57
2023/11/13 04:03:57;;;;;;;5.00;1.70;;;;;;;7.19;nan;95267.88;2042317;29;20040;-57
2023/11/13 04:04:58;;;;;;;4.15;1.50;;;;;;;7.26;nan;95266.69;2042449;29;20063;-57
2023/11/13 04:05:59;;;;;;;6.13;1.77;;;;;;;7.26;nan;95265.84;2042400;29;20059;-57
2023/11/13 04:07:01;;;;;;;3.10;1.20;;;;;;;7.30;nan;95272.56;2042109;29;20040;-57
2023/11/13 04:08:02;;;;;;;5.65;1.52;;;;;;;7.34;nan;95265.50;2033883;29;20059;-57
2023/11/13 04:09:03;;;;;;;4.03;1.15;;;;;;;7.42;nan;95259.06;2033552;29;20055;-57
2023/11/13 04:10:04;;;;;;;4.97;1.67;;;;;;;7.49;nan;95259.63;2041234;29;20492;-57
2023/11/13 04:11:06;;;;;;;9.93;2.28;;;;;;;7.56;nan;95261.00;2041645;29;20048;-58
2023/11/13 04:12:07;;;;;;;7.90;2.08;;;;;;;7.69;nan;95258.69;2042041;29;20062;-57
2023/11/13 04:13:08;;;;;;;6.43;1.50;;;;;;;7.70;nan;95247.44;2041778;29;20051;-57
2023/11/13 04:14:10;;;;;;;7.88;1.73;;;;;;;7.75;nan;95263.53;2041709;29;20063;-57
2023/11/13 04:15:11;;;;;;;3.75;1.10;;;;;;;7.80;nan;95253.81;2041383;29;20063;-59
2023/11/13 04:16:12;;;;;;;3.75;1.45;;;;;;;7.91;nan;95263.66;2042054;29;20408;-57
2023/11/13 04:17:14;;;;;;;14.88;1.40;;;;;;;7.99;nan;95252.94;2042286;29;20058;-58
2023/11/13 04:18:17;;;;;;;5.57;1.67;;;;;;;7.97;nan;95254.78;2042443;29;20047;-58
2023/11/13 04:19:20;;;;;;;9.20;1.65;;;;;;;8.12;nan;95233.31;2042199;29;20058;-59
2023/11/13 04:20:21;;;;;;;4.22;1.27;;;;;;;8.14;nan;95245.28;2042216;29;20040;-59
2023/11/13 04:21:22;;;;;;;5.30;1.65;;;;;;;8.14;nan;95258.19;2033571;29;20074;-58
2023/11/13 04:22:23;;;;;;;3.67;1.38;;;;;;;8.10;nan;95254.09;2026135;29;20494;-58
2023/11/13 04:23:25;;;;;;;10.65;2.00;;;;;;;8.08;nan;95257.69;2033671;29;20051;-58
2023/11/13 04:24:27;;;;;;;8.32;1.67;;;;;;;8.11;nan;95240.25;2042277;29;20074;-59
2023/11/13 04:25:28;;;;;;;6.15;1.67;;;;;;;8.15;nan;95248.69;2042074;29;20051;-58
2023/11/13 04:26:29;;;;;;;4.78;1.50;;;;;;;8.16;nan;95248.63;2042203;29;20487;-58
2023/11/13 04:27:31;;;;;;;7.93;1.45;;;;;;;8.18;nan;95248.56;2042005;29;20051;-59
2023/11/13 04:28:33;;;;;;;5.30;1.80;;;;;;;8.15;nan;95246.09;2041142;29;20063;-58
2023/11/13 04:29:34;;;;;;;6.65;1.65;;;;;;;8.15;nan;95239.19;2042005;29;20044;-59
2023/11/13 04:30:35;;;;;;;8.35;2.25;;;;;;;8.13;nan;95245.38;2042079;29;20468;-59
2023/11/13 04:31:36;;;;;;;3.38;1.05;;;;;;;8.16;nan;95251.22;2042151;29;20051;-59
2023/11/13 04:32:37;;;;;;;6.22;1.60;;;;;;;8.24;nan;95247.41;2042362;29;20471;-60
2023/11/13 04:33:38;;;;;;;2.78;1.20;;;;;;;8.22;nan;95241.47;2042114;29;20058;-61
2023/11/13 04:34:39;;;;;;;10.38;1.35;;;;;;;8.20;nan;95233.78;2042227;29;20380;-63
2023/11/13 04:35:41;;;;;;;5.30;2.05;;;;;;;8.21;nan;95240.66;2042132;29;20067;-62
2023/11/13 04:36:42;;;;;;;10.38;1.45;;;;;;;8.21;nan;95243.22;2041846;29;20416;-61
2023/11/13 04:37:44;;;;;;;5.38;1.30;;;;;;;8.19;nan;95239.88;2042228;29;20039;-60
2023/11/13 04:38:45;;;;;;;2.92;0.95;;;;;;;8.21;nan;95245.81;2040558;29;20048;-61
2023/11/13 04:39:46;;;;;;;4.95;1.55;;;;;;;8.19;nan;95232.13;2040867;29;20058;-61
2023/11/13 04:40:47;;;;;;;7.88;1.38;;;;;;;8.30;nan;95240.16;2041734;29;20066;-60
2023/11/13 04:41:48;;;;;;;5.57;1.35;;;;;;;8.32;nan;95250.44;2041980;29;20406;-60
2023/11/13 04:42:50;;;;;;;14.40;1.98;;;;;;;8.29;nan;95248.03;2041930;29;20039;-61
2023/11/13 04:43:51;;;;;;;5.72;1.25;;;;;;;8.31;nan;95254.78;2041834;29;20533;-61
2023/11/13 04:44:52;;;;;;;9.30;2.53;;;;;;;8.32;nan;95248.69;2042068;29;20047;-60
2023/11/13 04:45:53;;;;;;;6.07;1.50;;;;;;;8.33;nan;95258.13;2041955;29;20044;-60
2023/11/13 04:46:54;;;;;;;8.85;1.40;;;;;;;8.27;nan;95258.44;2041926;29;20399;-61
2023/11/13 04:47:55;;;;;;;3.72;1.00;;;;;;;8.33;nan;95272.81;2041858;29;20043;-60
2023/11/13 04:48:56;;;;;;;11.82;2.38;;;;;;;8.36;nan;95259.72;2042081;29;20055;-60
2023/11/13 04:49:58;;;;;;;7.85;2.20;;;;;;;8.38;nan;95268.25;2042037;29;20047;-60
2023/11/13 04:50:59;;;;;;;11.27;2.25;;;;;;;8.37;nan;95271.75;2041808;29;20075;-60
2023/11/13 04:52:01;;;;;;;8.85;2.33;;;;;;;8.34;nan;95262.41;2041815;29;20048;-60
2023/11/13 04:53:02;;;;;;;9.23;1.83;;;;;;;8.39;nan;95263.03;2042222;29;20063;-59
2023/11/13 04:54:04;;;;;;;10.77;2.33;;;;;;;8.43;nan;95250.78;2041968;29;20047;-60